sensor_id;sensor_type;location;lat;lon;timestamp;pressure;altitude;pressure_sealevel;temperature;humidity
42125;BME280;27787;44.594;11.046;2023-04-15T00:01:24;99872.31;;;10.12;54.79
42125;BME280;27787;44.594;11.046;2023-04-15T00:04:08;99874.06;;;10.22;54.48
42125;BME280;27787;44.594;11.046;2023-04-15T00:06:53;99877.53;;;10.30;56.18
42125;BME280;27787;44.594;11.046;2023-04-15T00:09:38;99870.41;;;10.46;56.75
42125;BME280;27787;44.594;11.046;2023-04-15T00:12:23;99861.56;;;10.50;57.22
42125;BME280;27787;44.594;11.046;2023-04-15T00:15:07;99856.25;;;10.56;57.52
42125;BME280;27787;44.594;11.046;2023-04-15T00:17:52;99854.47;;;10.59;56.11
42125;BME280;27787;44.594;11.046;2023-04-15T00:20:36;99857.06;;;10.62;57.04
42125;BME280;27787;44.594;11.046;2023-04-15T00:23:21;99851.81;;;10.61;54.51
42125;BME280;27787;44.594;11.046;2023-04-15T00:26:06;99850.91;;;10.63;55.90
42125;BME280;27787;44.594;11.046;2023-04-15T00:28:50;99850.03;;;10.63;56.48
42125;BME280;27787;44.594;11.046;2023-04-15T00:31:35;99850.91;;;10.62;56.60
42125;BME280;27787;44.594;11.046;2023-04-15T00:34:19;99849.19;;;10.58;57.26
42125;BME280;27787;44.594;11.046;2023-04-15T00:37:03;99837.78;;;10.56;57.24
42125;BME280;27787;44.594;11.046;2023-04-15T00:39:47;99843.06;;;10.56;57.88
42125;BME280;27787;44.594;11.046;2023-04-15T00:42:33;99847.47;;;10.55;58.51
42125;BME280;27787;44.594;11.046;2023-04-15T00:45:17;99842.16;;;10.54;58.61
42125;BME280;27787;44.594;11.046;2023-04-15T00:48:02;99843.03;;;10.54;58.23
42125;BME280;27787;44.594;11.046;2023-04-15T00:50:46;99845.69;;;10.56;57.38
42125;BME280;27787;44.594;11.046;2023-04-15T00:53:30;99848.28;;;10.60;57.99
42125;BME280;27787;44.594;11.046;2023-04-15T00:56:14;99850.94;;;10.59;58.20
42125;BME280;27787;44.594;11.046;2023-04-15T00:58:59;99849.22;;;10.56;57.31
42125;BME280;27787;44.594;11.046;2023-04-15T01:01:43;99852.75;;;10.51;57.72
42125;BME280;27787;44.594;11.046;2023-04-15T01:04:28;99862.50;;;10.43;59.10
42125;BME280;27787;44.594;11.046;2023-04-15T01:07:13;99852.88;;;10.36;60.10
42125;BME280;27787;44.594;11.046;2023-04-15T01:09:57;99851.13;;;10.33;61.00
42125;BME280;27787;44.594;11.046;2023-04-15T01:12:42;99851.16;;;10.25;60.78
42125;BME280;27787;44.594;11.046;2023-04-15T01:15:26;99846.78;;;10.20;60.74
42125;BME280;27787;44.594;11.046;2023-04-15T01:18:10;99845.03;;;10.14;60.87
42125;BME280;27787;44.594;11.046;2023-04-15T01:20:55;99850.34;;;10.11;60.25
42125;BME280;27787;44.594;11.046;2023-04-15T01:23:43;99846.81;;;10.14;60.49
42125;BME280;27787;44.594;11.046;2023-04-15T01:26:30;99852.09;;;10.11;60.62
42125;BME280;27787;44.594;11.046;2023-04-15T01:29:14;99846.84;;;10.09;60.65
42125;BME280;27787;44.594;11.046;2023-04-15T01:31:58;99847.75;;;10.05;60.65
42125;BME280;27787;44.594;11.046;2023-04-15T01:34:44;99844.25;;;10.00;60.74
42125;BME280;27787;44.594;11.046;2023-04-15T01:37:32;99843.41;;;9.92;61.68
42125;BME280;27787;44.594;11.046;2023-04-15T01:40:16;99854.84;;;9.91;62.44
42125;BME280;27787;44.594;11.046;2023-04-15T01:43:01;99846.94;;;9.86;62.83
42125;BME280;27787;44.594;11.046;2023-04-15T01:45:47;99851.38;;;9.81;63.65
42125;BME280;27787;44.594;11.046;2023-04-15T01:48:31;99851.38;;;9.83;63.15
42125;BME280;27787;44.594;11.046;2023-04-15T01:51:15;99849.63;;;9.74;63.00
42125;BME280;27787;44.594;11.046;2023-04-15T01:54:00;99854.94;;;9.62;64.29
42125;BME280;27787;44.594;11.046;2023-04-15T01:56:44;99858.50;;;9.50;65.11
42125;BME280;27787;44.594;11.046;2023-04-15T01:59:29;99854.13;;;9.43;65.00
42125;BME280;27787;44.594;11.046;2023-04-15T02:02:15;99858.53;;;9.36;65.65
42125;BME280;27787;44.594;11.046;2023-04-15T02:04:59;99860.31;;;9.30;65.85
42125;BME280;27787;44.594;11.046;2023-04-15T02:07:43;99865.59;;;9.25;65.41
42125;BME280;27787;44.594;11.046;2023-04-15T02:10:27;99867.34;;;9.28;61.68
42125;BME280;27787;44.594;11.046;2023-04-15T02:13:12;99868.22;;;9.30;60.18
42125;BME280;27787;44.594;11.046;2023-04-15T02:15:57;99861.19;;;9.30;59.67
42125;BME280;27787;44.594;11.046;2023-04-15T02:18:44;99863.81;;;9.32;59.15
42125;BME280;27787;44.594;11.046;2023-04-15T02:21:29;99868.19;;;9.42;58.74
42125;BME280;27787;44.594;11.046;2023-04-15T02:24:13;99869.91;;;9.58;58.37
42125;BME280;27787;44.594;11.046;2023-04-15T02:26:58;99868.13;;;9.66;58.10
42125;BME280;27787;44.594;11.046;2023-04-15T02:29:44;99868.13;;;9.68;57.28
42125;BME280;27787;44.594;11.046;2023-04-15T02:32:28;99870.75;;;9.60;57.61
42125;BME280;27787;44.594;11.046;2023-04-15T02:35:13;99872.56;;;9.52;58.57
42125;BME280;27787;44.594;11.046;2023-04-15T02:37:57;99870.81;;;9.46;58.02
42125;BME280;27787;44.594;11.046;2023-04-15T02:40:42;99875.19;;;9.44;57.02
42125;BME280;27787;44.594;11.046;2023-04-15T02:43:27;99870.78;;;9.48;56.30
42125;BME280;27787;44.594;11.046;2023-04-15T02:46:11;99871.69;;;9.47;56.39
42125;BME280;27787;44.594;11.046;2023-04-15T02:48:57;99876.97;;;9.39;57.87
42125;BME280;27787;44.594;11.046;2023-04-15T02:51:42;99870.88;;;9.27;56.79
42125;BME280;27787;44.594;11.046;2023-04-15T02:54:28;99870.84;;;9.33;55.98
42125;BME280;27787;44.594;11.046;2023-04-15T02:57:12;99872.56;;;9.43;55.99
42125;BME280;27787;44.594;11.046;2023-04-15T02:59:56;99869.03;;;9.53;55.77
42125;BME280;27787;44.594;11.046;2023-04-15T03:02:41;99870.81;;;9.53;55.19
42125;BME280;27787;44.594;11.046;2023-04-15T03:05:26;99868.16;;;9.54;54.91
42125;BME280;27787;44.594;11.046;2023-04-15T03:08:10;99869.06;;;9.42;55.81
42125;BME280;27787;44.594;11.046;2023-04-15T03:10:54;99858.56;;;9.23;55.00
42125;BME280;27787;44.594;11.046;2023-04-15T03:13:39;99859.47;;;9.06;55.83
42125;BME280;27787;44.594;11.046;2023-04-15T03:16:31;99857.72;;;8.96;54.76
42125;BME280;27787;44.594;11.046;2023-04-15T03:19:16;99863.00;;;9.04;56.36
42125;BME280;27787;44.594;11.046;2023-04-15T03:22:00;99868.25;;;9.05;56.86
42125;BME280;27787;44.594;11.046;2023-04-15T03:24:45;99868.25;;;9.07;59.00
42125;BME280;27787;44.594;11.046;2023-04-15T03:27:29;99865.63;;;9.02;59.98
42125;BME280;27787;44.594;11.046;2023-04-15T03:30:18;99862.97;;;9.05;60.23
42125;BME280;27787;44.594;11.046;2023-04-15T03:33:03;99864.75;;;9.05;59.65
42125;BME280;27787;44.594;11.046;2023-04-15T03:35:49;99866.50;;;9.04;59.48
42125;BME280;27787;44.594;11.046;2023-04-15T03:38:33;99869.13;;;9.01;59.43
42125;BME280;27787;44.594;11.046;2023-04-15T03:41:17;99865.63;;;9.05;60.62
42125;BME280;27787;44.594;11.046;2023-04-15T03:44:01;99875.25;;;9.06;62.63
42125;BME280;27787;44.594;11.046;2023-04-15T03:46:45;99874.38;;;8.98;63.26
42125;BME280;27787;44.594;11.046;2023-04-15T03:49:29;99874.41;;;8.89;63.41
42125;BME280;27787;44.594;11.046;2023-04-15T03:52:14;99875.28;;;8.88;64.02
42125;BME280;27787;44.594;11.046;2023-04-15T03:54:58;99875.28;;;8.86;64.50
42125;BME280;27787;44.594;11.046;2023-04-15T03:57:42;99872.63;;;8.85;65.01
42125;BME280;27787;44.594;11.046;2023-04-15T04:00:26;99882.28;;;8.84;65.66
42125;BME280;27787;44.594;11.046;2023-04-15T04:03:10;99881.44;;;8.87;65.64
42125;BME280;27787;44.594;11.046;2023-04-15T04:05:54;99880.53;;;8.80;66.69
42125;BME280;27787;44.594;11.046;2023-04-15T04:08:39;99882.31;;;8.75;67.07
42125;BME280;27787;44.594;11.046;2023-04-15T04:11:23;99885.78;;;8.82;66.77
42125;BME280;27787;44.594;11.046;2023-04-15T04:14:08;99880.53;;;9.00;66.39
42125;BME280;27787;44.594;11.046;2023-04-15T04:16:52;99886.69;;;9.01;66.15
42125;BME280;27787;44.594;11.046;2023-04-15T04:19:36;99893.72;;;9.00;66.67
42125;BME280;27787;44.594;11.046;2023-04-15T04:22:23;99893.69;;;8.96;67.41
42125;BME280;27787;44.594;11.046;2023-04-15T04:25:08;99895.47;;;8.88;67.99
42125;BME280;27787;44.594;11.046;2023-04-15T04:27:56;99905.97;;;8.81;69.02
42125;BME280;27787;44.594;11.046;2023-04-15T04:30:40;99904.22;;;8.76;68.44
42125;BME280;27787;44.594;11.046;2023-04-15T04:33:23;99908.63;;;8.74;68.14
42125;BME280;27787;44.594;11.046;2023-04-15T04:36:08;99911.22;;;8.71;68.48
42125;BME280;27787;44.594;11.046;2023-04-15T04:38:52;99909.47;;;8.70;69.54
42125;BME280;27787;44.594;11.046;2023-04-15T04:41:36;99907.72;;;8.78;68.69
42125;BME280;27787;44.594;11.046;2023-04-15T04:44:20;99913.88;;;8.83;67.07
42125;BME280;27787;44.594;11.046;2023-04-15T04:47:05;99909.47;;;8.80;66.28
42125;BME280;27787;44.594;11.046;2023-04-15T04:49:50;99907.72;;;8.82;66.89
42125;BME280;27787;44.594;11.046;2023-04-15T04:52:34;99909.47;;;8.82;66.68
42125;BME280;27787;44.594;11.046;2023-04-15T04:55:18;99908.63;;;8.88;66.80
42125;BME280;27787;44.594;11.046;2023-04-15T04:58:02;99920.91;;;8.90;67.22
42125;BME280;27787;44.594;11.046;2023-04-15T05:00:47;99922.66;;;8.90;67.71
42125;BME280;27787;44.594;11.046;2023-04-15T05:03:30;99920.88;;;8.96;67.29
42125;BME280;27787;44.594;11.046;2023-04-15T05:06:15;99933.19;;;8.91;66.79
42125;BME280;27787;44.594;11.046;2023-04-15T05:08:59;99934.06;;;8.92;66.46
42125;BME280;27787;44.594;11.046;2023-04-15T05:11:44;99935.81;;;8.91;66.14
42125;BME280;27787;44.594;11.046;2023-04-15T05:14:28;99934.94;;;8.88;66.16
42125;BME280;27787;44.594;11.046;2023-04-15T05:17:13;99936.66;;;8.81;66.14
42125;BME280;27787;44.594;11.046;2023-04-15T05:19:57;99941.06;;;8.79;66.76
42125;BME280;27787;44.594;11.046;2023-04-15T05:22:41;99952.47;;;8.75;66.91
42125;BME280;27787;44.594;11.046;2023-04-15T05:25:26;99955.06;;;8.61;67.83
42125;BME280;27787;44.594;11.046;2023-04-15T05:28:10;99955.88;;;8.42;68.71
42125;BME280;27787;44.594;11.046;2023-04-15T05:30:55;99953.19;;;8.26;69.93
42125;BME280;27787;44.594;11.046;2023-04-15T05:33:39;99954.88;;;8.14;70.39
42125;BME280;27787;44.594;11.046;2023-04-15T05:36:24;99953.06;;;8.01;70.38
42125;BME280;27787;44.594;11.046;2023-04-15T05:39:09;99956.56;;;7.99;70.58
42125;BME280;27787;44.594;11.046;2023-04-15T05:41:53;99959.19;;;8.01;69.63
42125;BME280;27787;44.594;11.046;2023-04-15T05:44:37;99965.41;;;8.14;69.04
42125;BME280;27787;44.594;11.046;2023-04-15T05:47:21;99961.94;;;8.32;68.29
42125;BME280;27787;44.594;11.046;2023-04-15T05:50:05;99958.53;;;8.49;68.57
42125;BME280;27787;44.594;11.046;2023-04-15T05:52:50;99962.09;;;8.70;67.33
42125;BME280;27787;44.594;11.046;2023-04-15T05:55:34;99963.84;;;8.84;66.25
42125;BME280;27787;44.594;11.046;2023-04-15T05:58:18;99974.44;;;9.00;65.86
42125;BME280;27787;44.594;11.046;2023-04-15T06:01:02;99978.81;;;9.08;63.99
42125;BME280;27787;44.594;11.046;2023-04-15T06:03:46;99982.31;;;9.09;63.68
42125;BME280;27787;44.594;11.046;2023-04-15T06:06:31;99989.34;;;9.04;65.20
42125;BME280;27787;44.594;11.046;2023-04-15T06:09:16;99994.63;;;9.02;65.25
42125;BME280;27787;44.594;11.046;2023-04-15T06:12:00;99997.25;;;8.99;65.03
42125;BME280;27787;44.594;11.046;2023-04-15T06:14:45;99995.50;;;9.01;65.89
42125;BME280;27787;44.594;11.046;2023-04-15T06:17:29;99994.59;;;8.98;65.69
42125;BME280;27787;44.594;11.046;2023-04-15T06:20:15;99991.09;;;8.91;67.98
42125;BME280;27787;44.594;11.046;2023-04-15T06:22:59;99994.56;;;8.75;70.89
42125;BME280;27787;44.594;11.046;2023-04-15T06:25:44;99995.38;;;8.58;71.60
42125;BME280;27787;44.594;11.046;2023-04-15T06:28:28;99991.88;;;8.56;70.86
42125;BME280;27787;44.594;11.046;2023-04-15T06:31:13;99992.75;;;8.54;70.20
42125;BME280;27787;44.594;11.046;2023-04-15T06:33:57;99991.88;;;8.56;69.26
42125;BME280;27787;44.594;11.046;2023-04-15T06:36:41;99991.91;;;8.66;69.30
42125;BME280;27787;44.594;11.046;2023-04-15T06:39:26;99998.03;;;8.71;70.27
42125;BME280;27787;44.594;11.046;2023-04-15T06:42:10;99994.53;;;8.70;71.06
42125;BME280;27787;44.594;11.046;2023-04-15T06:44:54;99991.94;;;8.75;70.90
42125;BME280;27787;44.594;11.046;2023-04-15T06:47:42;99992.81;;;8.83;70.99
42125;BME280;27787;44.594;11.046;2023-04-15T06:50:27;99999.00;;;9.00;71.00
42125;BME280;27787;44.594;11.046;2023-04-15T06:53:11;99992.88;;;9.16;69.21
42125;BME280;27787;44.594;11.046;2023-04-15T06:55:55;99994.59;;;9.22;68.01
42125;BME280;27787;44.594;11.046;2023-04-15T06:58:39;99992.84;;;9.35;67.21
42125;BME280;27787;44.594;11.046;2023-04-15T07:01:24;99993.75;;;9.51;66.55
42125;BME280;27787;44.594;11.046;2023-04-15T07:04:08;99991.09;;;9.66;67.49
42125;BME280;27787;44.594;11.046;2023-04-15T07:06:53;99991.09;;;9.78;68.38
42125;BME280;27787;44.594;11.046;2023-04-15T07:09:40;99996.34;;;9.83;67.61
42125;BME280;27787;44.594;11.046;2023-04-15T07:12:26;99994.53;;;9.97;68.23
42125;BME280;27787;44.594;11.046;2023-04-15T07:15:12;99996.28;;;10.07;70.07
42125;BME280;27787;44.594;11.046;2023-04-15T07:17:56;99991.88;;;10.09;70.28
42125;BME280;27787;44.594;11.046;2023-04-15T07:20:40;100000.66;;;10.11;70.66
42125;BME280;27787;44.594;11.046;2023-04-15T07:23:24;99996.25;;;10.12;71.24
42125;BME280;27787;44.594;11.046;2023-04-15T07:26:08;100001.50;;;10.13;73.33
42125;BME280;27787;44.594;11.046;2023-04-15T07:29:00;99997.13;;;10.17;74.67
42125;BME280;27787;44.594;11.046;2023-04-15T07:31:47;99998.88;;;10.18;77.90
42125;BME280;27787;44.594;11.046;2023-04-15T07:34:32;99997.97;;;10.28;79.25
42125;BME280;27787;44.594;11.046;2023-04-15T07:37:16;99995.34;;;10.32;78.34
42125;BME280;27787;44.594;11.046;2023-04-15T07:40:01;99993.56;;;10.28;75.47
42125;BME280;27787;44.594;11.046;2023-04-15T07:42:45;99997.09;;;10.33;74.81
42125;BME280;27787;44.594;11.046;2023-04-15T07:45:31;99991.75;;;10.46;74.22
42125;BME280;27787;44.594;11.046;2023-04-15T07:48:15;99993.44;;;10.62;73.59
42125;BME280;27787;44.594;11.046;2023-04-15T07:51:01;99994.22;;;10.78;72.64
42125;BME280;27787;44.594;11.046;2023-04-15T07:53:48;99984.47;;;10.90;71.96
42125;BME280;27787;44.594;11.046;2023-04-15T07:56:40;99987.00;;;11.07;70.93
42125;BME280;27787;44.594;11.046;2023-04-15T07:59:25;99991.38;;;11.11;69.42
42125;BME280;27787;44.594;11.046;2023-04-15T08:02:13;99993.09;;;11.14;71.20
42125;BME280;27787;44.594;11.046;2023-04-15T08:05:06;99995.69;;;11.23;73.06
42125;BME280;27787;44.594;11.046;2023-04-15T08:07:51;100001.81;;;11.27;74.67
42125;BME280;27787;44.594;11.046;2023-04-15T08:10:36;100003.53;;;11.34;76.41
42125;BME280;27787;44.594;11.046;2023-04-15T08:13:20;100000.84;;;11.38;74.96
42125;BME280;27787;44.594;11.046;2023-04-15T08:16:17;99998.13;;;11.44;73.76
42125;BME280;27787;44.594;11.046;2023-04-15T08:19:02;100007.00;;;11.40;74.23
42125;BME280;27787;44.594;11.046;2023-04-15T08:21:46;100009.59;;;11.46;77.15
42125;BME280;27787;44.594;11.046;2023-04-15T08:24:31;100005.16;;;11.50;77.87
42125;BME280;27787;44.594;11.046;2023-04-15T08:27:18;100013.03;;;11.55;72.48
42125;BME280;27787;44.594;11.046;2023-04-15T08:30:02;100014.81;;;11.52;72.95
42125;BME280;27787;44.594;11.046;2023-04-15T08:32:46;100013.03;;;11.55;76.08
42125;BME280;27787;44.594;11.046;2023-04-15T08:35:30;100011.25;;;11.60;76.08
42125;BME280;27787;44.594;11.046;2023-04-15T08:38:19;100014.69;;;11.66;77.57
42125;BME280;27787;44.594;11.046;2023-04-15T08:41:25;100010.19;;;11.79;76.16
42125;BME280;27787;44.594;11.046;2023-04-15T08:44:12;100002.22;;;11.82;78.04
42125;BME280;27787;44.594;11.046;2023-04-15T08:47:00;100010.91;;;11.95;76.61
42125;BME280;27787;44.594;11.046;2023-04-15T08:49:46;100006.50;;;11.98;74.04
42125;BME280;27787;44.594;11.046;2023-04-15T08:52:37;100011.72;;;12.04;74.73
42125;BME280;27787;44.594;11.046;2023-04-15T08:55:23;100010.75;;;12.13;75.35
42125;BME280;27787;44.594;11.046;2023-04-15T08:58:13;100004.44;;;12.23;76.16
42125;BME280;27787;44.594;11.046;2023-04-15T09:00:57;100010.56;;;12.28;75.90
42125;BME280;27787;44.594;11.046;2023-04-15T09:03:42;100005.06;;;12.44;77.21
42125;BME280;27787;44.594;11.046;2023-04-15T09:06:30;100005.94;;;12.46;75.95
42125;BME280;27787;44.594;11.046;2023-04-15T09:09:14;100001.44;;;12.52;75.09
42125;BME280;27787;44.594;11.046;2023-04-15T09:12:00;99998.72;;;12.57;73.31
42125;BME280;27787;44.594;11.046;2023-04-15T09:14:45;100002.97;;;12.70;72.80
42125;BME280;27787;44.594;11.046;2023-04-15T09:17:32;99999.19;;;12.88;69.31
42125;BME280;27787;44.594;11.046;2023-04-15T09:20:17;99994.66;;;12.96;69.29
42125;BME280;27787;44.594;11.046;2023-04-15T09:23:12;99993.69;;;13.02;70.56
42125;BME280;27787;44.594;11.046;2023-04-15T09:25:56;99994.47;;;13.08;68.17
42125;BME280;27787;44.594;11.046;2023-04-15T09:28:41;100006.94;;;13.03;68.08
42125;BME280;27787;44.594;11.046;2023-04-15T09:31:29;99993.47;;;13.17;65.20
42125;BME280;27787;44.594;11.046;2023-04-15T09:34:14;99993.47;;;13.18;65.84
42125;BME280;27787;44.594;11.046;2023-04-15T09:36:58;99989.03;;;13.17;63.87
42125;BME280;27787;44.594;11.046;2023-04-15T09:39:48;99984.47;;;13.27;61.73
42125;BME280;27787;44.594;11.046;2023-04-15T09:42:32;99980.06;;;13.29;60.66
42125;BME280;27787;44.594;11.046;2023-04-15T09:45:17;99978.13;;;13.37;58.00
42125;BME280;27787;44.594;11.046;2023-04-15T09:48:20;99978.94;;;13.41;56.78
42125;BME280;27787;44.594;11.046;2023-04-15T09:51:04;99962.06;;;13.48;57.85
42125;BME280;27787;44.594;11.046;2023-04-15T09:53:53;99971.63;;;13.56;57.58
42125;BME280;27787;44.594;11.046;2023-04-15T09:56:38;99965.28;;;13.65;59.18
42125;BME280;27787;44.594;11.046;2023-04-15T09:59:28;99971.47;;;13.64;58.79
42125;BME280;27787;44.594;11.046;2023-04-15T10:02:15;99967.09;;;13.62;58.97
42125;BME280;27787;44.594;11.046;2023-04-15T10:05:01;99960.97;;;13.60;59.79
42125;BME280;27787;44.594;11.046;2023-04-15T10:07:46;99955.47;;;13.70;62.00
42125;BME280;27787;44.594;11.046;2023-04-15T10:10:31;99952.69;;;13.76;62.37
42125;BME280;27787;44.594;11.046;2023-04-15T10:13:18;99952.44;;;13.90;60.47
42125;BME280;27787;44.594;11.046;2023-04-15T10:16:10;99950.50;;;13.98;59.83
42125;BME280;27787;44.594;11.046;2023-04-15T10:18:55;99952.16;;;14.04;60.56
42125;BME280;27787;44.594;11.046;2023-04-15T10:21:41;99946.00;;;14.02;59.98
42125;BME280;27787;44.594;11.046;2023-04-15T10:24:26;99941.56;;;14.02;60.67
42125;BME280;27787;44.594;11.046;2023-04-15T10:27:13;99934.38;;;14.09;61.82
42125;BME280;27787;44.594;11.046;2023-04-15T10:29:59;99933.44;;;14.11;61.99
42125;BME280;27787;44.594;11.046;2023-04-15T10:32:44;99937.78;;;14.15;61.73
42125;BME280;27787;44.594;11.046;2023-04-15T10:35:32;99930.59;;;14.19;61.93
42125;BME280;27787;44.594;11.046;2023-04-15T10:38:43;99937.34;;;14.37;57.18
42125;BME280;27787;44.594;11.046;2023-04-15T10:41:28;99921.38;;;14.38;57.35
42125;BME280;27787;44.594;11.046;2023-04-15T10:44:17;99926.56;;;14.44;56.65
42125;BME280;27787;44.594;11.046;2023-04-15T10:47:05;99929.69;;;14.63;55.21
42125;BME280;27787;44.594;11.046;2023-04-15T10:49:57;99930.53;;;14.65;56.20
42125;BME280;27787;44.594;11.046;2023-04-15T10:52:42;99920.03;;;14.61;57.53
42125;BME280;27787;44.594;11.046;2023-04-15T10:55:31;99930.28;;;14.76;56.01
42125;BME280;27787;44.594;11.046;2023-04-15T10:58:15;99923.28;;;14.73;55.14
42125;BME280;27787;44.594;11.046;2023-04-15T11:01:00;99920.69;;;14.69;55.98
42125;BME280;27787;44.594;11.046;2023-04-15T11:03:45;99922.38;;;14.74;54.90
42125;BME280;27787;44.594;11.046;2023-04-15T11:06:43;99910.06;;;14.69;54.05
42125;BME280;27787;44.594;11.046;2023-04-15T11:09:32;99907.50;;;14.66;53.53
42125;BME280;27787;44.594;11.046;2023-04-15T11:12:18;99907.22;;;14.78;54.18
42125;BME280;27787;44.594;11.046;2023-04-15T11:15:40;99905.44;;;14.79;52.93
42125;BME280;27787;44.594;11.046;2023-04-15T11:18:27;99900.88;;;14.84;52.19
42125;BME280;27787;44.594;11.046;2023-04-15T11:21:13;99890.16;;;14.88;51.31
42125;BME280;27787;44.594;11.046;2023-04-15T11:23:57;99897.88;;;14.99;48.31
42125;BME280;27787;44.594;11.046;2023-04-15T11:26:42;99900.41;;;15.03;49.41
42125;BME280;27787;44.594;11.046;2023-04-15T11:29:32;99886.97;;;15.08;51.38
42125;BME280;27787;44.594;11.046;2023-04-15T11:32:16;99886.84;;;15.14;50.60
42125;BME280;27787;44.594;11.046;2023-04-15T11:35:00;99889.47;;;15.16;52.12
42125;BME280;27787;44.594;11.046;2023-04-15T11:37:46;99894.25;;;15.35;52.21
42125;BME280;27787;44.594;11.046;2023-04-15T11:40:36;99890.53;;;15.43;52.25
42125;BME280;27787;44.594;11.046;2023-04-15T11:43:21;99884.38;;;15.41;52.63
42125;BME280;27787;44.594;11.046;2023-04-15T11:46:06;99891.91;;;15.57;52.63
42125;BME280;27787;44.594;11.046;2023-04-15T11:48:51;99886.97;;;15.44;53.06
42125;BME280;27787;44.594;11.046;2023-04-15T11:51:36;99887.19;;;15.34;53.13
42125;BME280;27787;44.594;11.046;2023-04-15T11:54:20;99889.81;;;15.36;53.46
42125;BME280;27787;44.594;11.046;2023-04-15T11:57:06;99892.31;;;15.42;52.46
42125;BME280;27787;44.594;11.046;2023-04-15T11:59:53;99886.00;;;15.46;52.40
42125;BME280;27787;44.594;11.046;2023-04-15T12:02:39;99880.72;;;15.45;52.14
42125;BME280;27787;44.594;11.046;2023-04-15T12:05:24;99879.06;;;15.41;52.30
42125;BME280;27787;44.594;11.046;2023-04-15T12:08:08;99878.09;;;15.43;52.30
42125;BME280;27787;44.594;11.046;2023-04-15T12:10:58;99878.09;;;15.43;51.55
42125;BME280;27787;44.594;11.046;2023-04-15T12:13:43;99874.47;;;15.46;51.32
42125;BME280;27787;44.594;11.046;2023-04-15T12:16:29;99884.16;;;15.50;51.11
42125;BME280;27787;44.594;11.046;2023-04-15T12:19:57;99882.31;;;15.52;50.54
42125;BME280;27787;44.594;11.046;2023-04-15T12:22:21;99885.59;;;15.63;50.99
42125;BME280;27787;44.594;11.046;2023-04-15T12:25:06;99877.38;;;15.71;50.58
42125;BME280;27787;44.594;11.046;2023-04-15T12:27:51;99883.47;;;15.76;50.26
42125;BME280;27787;44.594;11.046;2023-04-15T12:30:47;99882.47;;;15.80;49.35
42125;BME280;27787;44.594;11.046;2023-04-15T12:33:32;99880.53;;;15.85;49.91
42125;BME280;27787;44.594;11.046;2023-04-15T12:36:17;99883.00;;;15.92;48.70
42125;BME280;27787;44.594;11.046;2023-04-15T12:39:02;99885.28;;;16.05;47.25
42125;BME280;27787;44.594;11.046;2023-04-15T12:41:47;99880.03;;;16.03;46.86
42125;BME280;27787;44.594;11.046;2023-04-15T12:44:32;99874.50;;;16.09;46.16
42125;BME280;27787;44.594;11.046;2023-04-15T12:47:16;99876.91;;;16.18;48.80
42125;BME280;27787;44.594;11.046;2023-04-15T12:50:00;99873.78;;;16.34;45.72
42125;BME280;27787;44.594;11.046;2023-04-15T12:52:45;99871.88;;;16.37;46.38
42125;BME280;27787;44.594;11.046;2023-04-15T12:55:29;99866.38;;;16.43;46.46
42125;BME280;27787;44.594;11.046;2023-04-15T12:58:13;99862.75;;;16.46;45.37
42125;BME280;27787;44.594;11.046;2023-04-15T13:00:58;99865.13;;;16.55;45.23
42125;BME280;27787;44.594;11.046;2023-04-15T13:03:43;99864.88;;;16.63;44.96
42125;BME280;27787;44.594;11.046;2023-04-15T13:06:27;99863.88;;;16.65;44.27
42125;BME280;27787;44.594;11.046;2023-04-15T13:09:12;99854.94;;;16.69;43.82
42125;BME280;27787;44.594;11.046;2023-04-15T13:11:56;99865.59;;;16.69;43.53
42125;BME280;27787;44.594;11.046;2023-04-15T13:14:41;99863.75;;;16.71;44.28
42125;BME280;27787;44.594;11.046;2023-04-15T13:17:25;99856.34;;;16.81;43.80
42125;BME280;27787;44.594;11.046;2023-04-15T13:20:10;99856.13;;;16.87;43.40
42125;BME280;27787;44.594;11.046;2023-04-15T13:22:54;99860.28;;;16.96;43.62
42125;BME280;27787;44.594;11.046;2023-04-15T13:25:38;99857.28;;;17.05;43.82
42125;BME280;27787;44.594;11.046;2023-04-15T13:28:22;99854.44;;;17.11;43.82
42125;BME280;27787;44.594;11.046;2023-04-15T13:31:06;99855.94;;;17.18;43.71
42125;BME280;27787;44.594;11.046;2023-04-15T13:33:50;99855.81;;;17.23;43.57
42125;BME280;27787;44.594;11.046;2023-04-15T13:36:34;99836.16;;;17.25;43.28
42125;BME280;27787;44.594;11.046;2023-04-15T13:39:19;99848.06;;;17.40;43.82
42125;BME280;27787;44.594;11.046;2023-04-15T13:42:03;99848.41;;;17.56;42.18
42125;BME280;27787;44.594;11.046;2023-04-15T13:44:51;99843.94;;;17.56;43.51
42125;BME280;27787;44.594;11.046;2023-04-15T13:47:34;99842.00;;;17.61;43.45
42125;BME280;27787;44.594;11.046;2023-04-15T13:50:19;99837.34;;;17.66;44.43
42125;BME280;27787;44.594;11.046;2023-04-15T13:53:03;99848.66;;;17.75;44.60
42125;BME280;27787;44.594;11.046;2023-04-15T13:55:48;99842.09;;;17.83;44.25
42125;BME280;27787;44.594;11.046;2023-04-15T13:58:32;99834.66;;;17.91;43.42
42125;BME280;27787;44.594;11.046;2023-04-15T14:01:16;99833.47;;;18.00;42.73
42125;BME280;27787;44.594;11.046;2023-04-15T14:04:00;99831.25;;;18.11;42.66
42125;BME280;27787;44.594;11.046;2023-04-15T14:06:45;99829.13;;;18.19;42.93
42125;BME280;27787;44.594;11.046;2023-04-15T14:09:29;99824.56;;;18.23;42.81
42125;BME280;27787;44.594;11.046;2023-04-15T14:12:13;99817.25;;;18.28;43.03
42125;BME280;27787;44.594;11.046;2023-04-15T14:14:58;99824.91;;;18.37;42.44
42125;BME280;27787;44.594;11.046;2023-04-15T14:17:42;99816.63;;;18.43;41.68
42125;BME280;27787;44.594;11.046;2023-04-15T14:20:26;99816.19;;;18.54;41.45
42125;BME280;27787;44.594;11.046;2023-04-15T14:23:10;99821.34;;;18.58;41.77
42125;BME280;27787;44.594;11.046;2023-04-15T14:25:55;99823.69;;;18.68;42.57
42125;BME280;27787;44.594;11.046;2023-04-15T14:28:39;99822.44;;;18.76;42.15